createdAt,value
2022-09-02T00:00:30.639Z,56.59
2022-09-02T00:01:30.636Z,57.29
2022-09-02T00:02:30.778Z,56.29
2022-09-02T00:03:30.814Z,56.79
2022-09-02T00:04:30.643Z,57.59
2022-09-02T00:05:30.636Z,57.09
2022-09-02T00:06:30.642Z,57.09
2022-09-02T00:07:30.639Z,56.79
2022-09-02T00:08:30.639Z,56.69
2022-09-02T00:09:30.634Z,56.99
2022-09-02T00:10:30.643Z,57.09
2022-09-02T00:11:30.637Z,57.09
2022-09-02T00:12:30.641Z,56.49
2022-09-02T00:13:30.633Z,57.39
2022-09-02T00:14:30.634Z,56.69
2022-09-02T00:15:30.632Z,56.49
2022-09-02T00:16:30.652Z,57.19
2022-09-02T00:17:30.630Z,56.79
2022-09-02T00:18:30.639Z,57.09
2022-09-02T00:19:30.641Z,56.69
2022-09-02T00:20:30.631Z,57.39
2022-09-02T00:21:30.633Z,56.69
2022-09-02T00:22:30.639Z,56.99
2022-09-02T00:23:30.630Z,56.49
2022-09-02T00:24:30.632Z,57.50
2022-09-02T00:25:30.631Z,56.69
2022-09-02T00:26:30.632Z,57.29
2022-09-02T00:27:30.628Z,57.39
2022-09-02T00:28:30.630Z,57.39
2022-09-02T00:29:30.626Z,57.29
2022-09-02T00:30:30.636Z,56.69
2022-09-02T00:31:30.686Z,57.70
2022-09-02T00:32:30.635Z,56.89
2022-09-02T00:33:30.624Z,56.69
2022-09-02T00:34:30.625Z,57.39
2022-09-02T00:35:30.624Z,57.70
2022-09-02T00:36:30.630Z,57.50
2022-09-02T00:37:30.624Z,57.29
2022-09-02T00:38:30.626Z,56.99
2022-09-02T00:39:30.623Z,58.00
2022-09-02T00:40:30.720Z,57.29
2022-09-02T00:41:30.623Z,57.59
2022-09-02T00:42:30.624Z,57.50
2022-09-02T00:43:30.625Z,57.29
2022-09-02T00:44:30.625Z,56.99
2022-09-02T00:45:30.674Z,57.59
2022-09-02T00:46:30.677Z,57.29
2022-09-02T00:47:30.621Z,57.39
2022-09-02T00:48:30.628Z,57.19
2022-09-02T00:49:31.076Z,57.09
2022-09-02T00:50:30.621Z,57.39
2022-09-02T00:51:30.623Z,57.42
2022-09-02T00:52:30.620Z,57.22
2022-09-02T00:53:30.618Z,56.89
2022-09-02T00:54:30.626Z,57.82
2022-09-02T00:55:30.619Z,58.40
2022-09-02T00:56:30.618Z,57.09
2022-09-02T00:57:30.617Z,57.70
2022-09-02T00:58:30.618Z,58.60
2022-09-02T00:59:30.618Z,57.50
2022-09-02T01:00:34.493Z,57.29
2022-09-02T01:01:30.726Z,57.39
2022-09-02T01:02:30.624Z,56.79
2022-09-02T01:03:30.631Z,57.70
2022-09-02T01:04:30.622Z,57.09
2022-09-02T01:05:30.613Z,58.80
2022-09-02T01:06:30.622Z,58.40
2022-09-02T01:07:30.618Z,58.50
2022-09-02T01:08:30.616Z,59.00
2022-09-02T01:09:30.612Z,57.59
2022-09-02T01:10:30.615Z,59.20
2022-09-02T01:11:30.612Z,59.70
2022-09-02T01:12:30.615Z,59.60
2022-09-02T01:13:30.614Z,58.50
2022-09-02T01:14:30.614Z,58.29
2022-09-02T01:15:30.610Z,58.70
2022-09-02T01:16:30.682Z,59.70
2022-09-02T01:17:30.611Z,59.10
2022-09-02T01:18:30.616Z,58.80
2022-09-02T01:19:30.611Z,57.90
2022-09-02T01:20:30.617Z,57.70
2022-09-02T01:21:30.609Z,57.19
2022-09-02T01:22:30.612Z,58.80
2022-09-02T01:23:32.368Z,59.50
2022-09-02T01:24:30.612Z,59.10
2022-09-02T01:25:30.607Z,58.29
2022-09-02T01:26:30.609Z,57.09
2022-09-02T01:27:30.608Z,57.50
2022-09-02T01:28:30.613Z,58.29
2022-09-02T01:29:30.606Z,58.42
2022-09-02T01:30:30.609Z,58.40
2022-09-02T01:31:30.687Z,58.70
2022-09-02T01:32:30.609Z,58.60
2022-09-02T01:33:31.659Z,58.20
2022-09-02T01:34:30.605Z,58.20
2022-09-02T01:35:30.602Z,58.70
2022-09-02T01:36:30.607Z,59.60
2022-09-02T01:37:30.602Z,59.60
2022-09-02T01:38:30.603Z,59.20
2022-09-02T01:39:30.602Z,58.29
2022-09-02T01:40:30.636Z,59.91
2022-09-02T01:41:30.601Z,60.11
2022-09-02T01:42:30.604Z,60.11
2022-09-02T01:43:30.600Z,60.11
2022-09-02T01:44:30.602Z,60.11
2022-09-02T01:45:30.604Z,60.41
2022-09-02T01:46:30.661Z,60.61
2022-09-02T01:47:30.600Z,60.41
2022-09-02T01:48:30.601Z,60.31
2022-09-02T01:49:30.848Z,60.11
2022-09-02T01:50:30.599Z,60.41
2022-09-02T01:51:30.603Z,60.51
2022-09-02T01:52:30.599Z,59.91
2022-09-02T01:53:30.605Z,59.41
2022-09-02T01:54:30.598Z,60.11
2022-09-02T01:55:30.596Z,59.10
2022-09-02T01:56:30.596Z,58.09
2022-09-02T01:57:30.594Z,58.80
2022-09-02T01:58:30.598Z,58.90
2022-09-02T01:59:30.602Z,59.60
2022-09-02T02:00:30.683Z,60.00
2022-09-02T02:01:30.673Z,60.00
2022-09-02T02:02:30.597Z,60.11
2022-09-02T02:03:30.626Z,60.71
2022-09-02T02:04:30.603Z,61.01
2022-09-02T02:05:30.594Z,60.51
2022-09-02T02:06:30.596Z,61.21
2022-09-02T02:07:30.594Z,61.91
2022-09-02T02:08:30.593Z,61.31
2022-09-02T02:09:30.592Z,60.51
2022-09-02T02:10:30.592Z,60.00
2022-09-02T02:11:30.593Z,61.01
2022-09-02T02:12:30.591Z,61.21
2022-09-02T02:13:30.593Z,61.11
2022-09-02T02:14:30.589Z,59.41
2022-09-02T02:16:10.123Z,59.50
2022-09-02T02:17:10.086Z,59.50
2022-09-02T02:18:10.088Z,59.60
2022-09-02T02:19:10.090Z,60.31
2022-09-02T02:20:10.083Z,59.74
2022-09-02T02:21:10.083Z,60.71
2022-09-02T02:22:10.084Z,59.41
2022-09-02T02:23:10.084Z,59.30
2022-09-02T02:24:10.084Z,60.61
2022-09-02T02:25:10.085Z,60.31
2022-09-02T02:26:10.086Z,60.41
2022-09-02T02:27:10.082Z,61.31
2022-09-02T02:28:10.109Z,61.41
2022-09-02T02:29:10.081Z,61.24
2022-09-02T02:30:10.096Z,61.01
2022-09-02T02:31:10.118Z,60.53
2022-09-02T02:32:10.082Z,60.31
2022-09-02T02:33:10.128Z,60.13
2022-09-02T02:34:10.082Z,60.84
2022-09-02T02:35:10.080Z,61.11
2022-09-02T02:36:10.079Z,60.53
2022-09-02T02:37:10.079Z,61.04
2022-09-02T02:38:10.076Z,61.82
2022-09-02T02:39:10.079Z,61.04
2022-09-02T02:40:10.150Z,61.34
2022-09-02T02:41:10.076Z,60.61
2022-09-02T02:42:10.078Z,60.33
2022-09-02T02:43:10.078Z,59.43
2022-09-02T02:44:10.081Z,60.74
2022-09-02T02:45:10.079Z,60.84
2022-09-02T02:46:10.103Z,60.13
2022-09-02T02:47:10.078Z,61.24
2022-09-02T02:48:10.080Z,61.44
2022-09-02T02:49:10.076Z,61.24
2022-09-02T02:50:10.073Z,61.14
2022-09-02T02:51:10.072Z,60.94
2022-09-02T02:52:10.073Z,60.74
2022-09-02T02:53:10.071Z,60.24
2022-09-02T02:54:10.077Z,61.44
2022-09-02T02:55:10.073Z,61.24
2022-09-02T02:56:10.068Z,60.94
2022-09-02T02:57:10.068Z,59.63
2022-09-02T02:58:10.070Z,59.94
2022-09-02T02:59:10.071Z,60.84
2022-09-02T03:00:10.072Z,61.14
2022-09-02T03:01:10.070Z,61.74
2022-09-02T03:02:10.222Z,61.85
2022-09-02T03:03:10.198Z,61.24
2022-09-02T03:04:10.070Z,61.57
2022-09-02T03:05:10.066Z,61.04
2022-09-02T03:06:10.066Z,61.07
2022-09-02T03:07:10.065Z,61.07
2022-09-02T03:08:10.065Z,60.97
2022-09-02T03:09:10.061Z,60.24
2022-09-02T03:10:10.065Z,61.57
2022-09-02T03:11:10.065Z,61.47
2022-09-02T03:12:10.063Z,61.37
2022-09-02T03:13:10.060Z,61.87
2022-09-02T03:14:10.071Z,62.07
2022-09-02T03:15:10.060Z,60.97
2022-09-02T03:16:10.141Z,60.94
2022-09-02T03:17:10.066Z,60.47
2022-09-02T03:18:10.061Z,60.06
2022-09-02T03:19:10.059Z,60.16
2022-09-02T03:20:10.060Z,61.07
2022-09-02T03:21:10.055Z,60.67
2022-09-02T03:22:10.058Z,61.07
2022-09-02T03:23:10.054Z,61.47
2022-09-02T03:24:10.058Z,60.47
2022-09-02T03:25:10.056Z,61.27
2022-09-02T03:26:10.053Z,60.97
2022-09-02T03:27:10.054Z,60.97
2022-09-02T03:28:10.055Z,61.60
2022-09-02T03:29:10.051Z,60.89
2022-09-02T03:30:10.057Z,61.80
2022-09-02T03:31:10.126Z,62.01
2022-09-02T03:32:10.055Z,62.71
2022-09-02T03:33:10.051Z,61.20
2022-09-02T03:34:10.053Z,61.20
2022-09-02T03:35:10.049Z,60.80
2022-09-02T03:36:10.048Z,61.40
2022-09-02T03:37:10.049Z,60.29
2022-09-02T03:38:10.050Z,61.00
2022-09-02T03:39:10.272Z,61.53
2022-09-02T03:40:10.154Z,61.53
2022-09-02T03:41:10.045Z,61.93
2022-09-02T03:42:11.225Z,61.16
2022-09-02T03:43:10.045Z,61.46
2022-09-02T03:44:10.044Z,61.96
2022-09-02T03:45:10.043Z,62.90
2022-09-02T03:46:10.167Z,63.10
2022-09-02T03:47:10.040Z,63.70
2022-09-02T03:48:10.039Z,63.07
2022-09-02T03:49:10.045Z,63.81
2022-09-02T03:50:10.390Z,63.98
2022-09-02T03:51:10.042Z,63.27
2022-09-02T03:52:10.040Z,63.47
2022-09-02T03:53:10.035Z,63.67
2022-09-02T03:54:10.038Z,63.47
2022-09-02T03:55:10.037Z,63.37
2022-09-02T03:56:10.035Z,63.17
2022-09-02T03:57:10.033Z,63.78
2022-09-02T03:58:10.033Z,61.76
2022-09-02T03:59:10.030Z,63.17
2022-09-02T04:00:10.033Z,63.87
2022-09-02T04:01:10.035Z,64.28
2022-09-02T04:02:10.146Z,63.17
2022-09-02T04:03:10.080Z,62.66
2022-09-02T04:04:10.031Z,63.27
2022-09-02T04:05:13.674Z,63.17
2022-09-02T04:06:10.039Z,63.47
2022-09-02T04:07:10.026Z,63.47
2022-09-02T04:08:10.031Z,62.60
2022-09-02T04:09:10.028Z,61.99
2022-09-02T04:10:10.024Z,63.64
2022-09-02T04:11:10.025Z,63.64
2022-09-02T04:12:10.025Z,64.24
2022-09-02T04:13:10.023Z,63.96
2022-09-02T04:14:10.021Z,63.56
2022-09-02T04:15:10.021Z,63.70
2022-09-02T04:16:10.491Z,65.11
2022-09-02T04:17:10.020Z,63.90
2022-09-02T04:18:10.020Z,64.33
2022-09-02T04:19:10.023Z,64.33
2022-09-02T04:20:10.014Z,65.78
2022-09-02T04:21:10.013Z,67.39
2022-09-02T04:22:10.016Z,66.31
2022-09-02T04:23:10.012Z,67.12
2022-09-02T04:24:10.016Z,66.92
2022-09-02T04:25:10.008Z,67.72
2022-09-02T04:26:10.012Z,67.15
2022-09-02T04:27:10.010Z,67.96
2022-09-02T04:28:10.010Z,67.35
2022-09-02T04:29:10.009Z,68.06
2022-09-02T04:30:10.005Z,67.79
2022-09-02T04:31:10.095Z,67.39
2022-09-02T04:32:10.006Z,68.10
2022-09-02T04:33:10.000Z,67.96
2022-09-02T04:34:10.002Z,69.01
2022-09-02T04:35:10.009Z,69.21
2022-09-02T04:36:10.002Z,69.01
2022-09-02T04:37:10.000Z,69.31
2022-09-02T04:38:10.002Z,68.10
2022-09-02T04:39:09.995Z,68.40
2022-09-02T04:40:10.065Z,68.70
2022-09-02T04:41:09.992Z,68.90
2022-09-02T04:42:09.990Z,68.90
2022-09-02T04:43:09.997Z,69.01
2022-09-02T04:44:09.991Z,70.42
2022-09-02T04:45:09.993Z,70.05
2022-09-02T04:46:10.032Z,69.65
2022-09-02T04:47:09.985Z,69.71
2022-09-02T04:48:09.992Z,69.65
2022-09-02T04:49:09.999Z,69.95
2022-09-02T04:50:09.984Z,70.05
2022-09-02T04:51:09.996Z,69.95
2022-09-02T04:52:09.980Z,70.05
2022-09-02T04:53:09.976Z,70.15
2022-09-02T04:54:09.979Z,70.76
2022-09-02T04:55:09.976Z,70.65
2022-09-02T04:56:09.982Z,70.86
2022-09-02T04:57:10.004Z,70.45
2022-09-02T04:58:09.988Z,70.45
2022-09-02T04:59:09.972Z,70.05
2022-09-02T05:00:09.987Z,69.74
2022-09-02T05:01:10.011Z,69.54
2022-09-02T05:02:10.180Z,70.05
2022-09-02T05:03:09.966Z,69.71
2022-09-02T05:04:10.130Z,69.92
2022-09-02T05:05:09.964Z,69.74
2022-09-02T05:06:09.959Z,68.94
2022-09-02T05:07:09.960Z,69.74
2022-09-02T05:08:09.956Z,69.85
2022-09-02T05:09:09.954Z,70.39
2022-09-02T05:10:09.956Z,70.89
2022-09-02T05:11:09.953Z,71.40
2022-09-02T05:12:09.958Z,72.21
2022-09-02T05:13:09.950Z,72.21
2022-09-02T05:14:09.948Z,72.31
2022-09-02T05:15:09.944Z,72.34
2022-09-02T05:16:10.027Z,71.91
2022-09-02T05:17:09.942Z,72.21
2022-09-02T05:18:09.954Z,72.31
2022-09-02T05:19:09.942Z,72.31
2022-09-02T05:20:09.943Z,72.45
2022-09-02T05:21:09.937Z,72.21
2022-09-02T05:22:09.937Z,73.02
2022-09-02T05:23:09.935Z,72.72
2022-09-02T05:24:09.937Z,73.43
2022-09-02T05:25:09.932Z,73.43
2022-09-02T05:26:09.931Z,73.49
2022-09-02T05:27:09.938Z,72.88
2022-09-02T05:28:09.929Z,73.59
2022-09-02T05:29:09.929Z,74.20
2022-09-02T05:30:09.932Z,74.00
2022-09-02T05:31:10.103Z,73.86
2022-09-02T05:32:09.923Z,74.07
2022-09-02T05:33:09.949Z,73.96
2022-09-02T05:34:09.930Z,74.07
2022-09-02T05:35:09.921Z,74.13
2022-09-02T05:36:09.917Z,73.69
2022-09-02T05:37:09.915Z,74.10
2022-09-02T05:38:09.915Z,74.10
2022-09-02T05:39:09.910Z,74.30
2022-09-02T05:40:10.006Z,74.60
2022-09-02T05:41:09.908Z,74.80
2022-09-02T05:42:09.906Z,75.51
2022-09-02T05:43:09.905Z,74.26
2022-09-02T05:44:09.904Z,73.05
2022-09-02T05:45:09.902Z,73.25
2022-09-02T05:46:09.970Z,72.48
2022-09-02T05:47:09.902Z,73.05
2022-09-02T05:48:09.899Z,73.05
2022-09-02T05:49:09.897Z,72.24
2022-09-02T05:50:09.900Z,72.14
2022-09-02T05:51:09.893Z,72.11
2022-09-02T05:52:09.893Z,72.85
2022-09-02T05:53:14.228Z,72.31
2022-09-02T05:54:09.891Z,72.11
2022-09-02T05:55:09.888Z,71.30
2022-09-02T05:56:09.888Z,72.21
2022-09-02T05:57:09.889Z,72.21
2022-09-02T05:58:09.954Z,72.27
2022-09-02T05:59:09.884Z,72.07
2022-09-02T06:00:09.887Z,72.07
2022-09-02T06:01:09.881Z,72.48
2022-09-02T06:02:10.001Z,72.07
2022-09-02T06:03:09.926Z,71.87
2022-09-02T06:04:09.875Z,71.97
2022-09-02T06:05:09.874Z,71.26
2022-09-02T06:06:09.889Z,70.86
2022-09-02T06:07:09.926Z,71.44
2022-09-02T06:08:09.879Z,71.33
2022-09-02T06:09:09.868Z,71.23
2022-09-02T06:10:09.872Z,71.64
2022-09-02T06:11:09.867Z,71.33
2022-09-02T06:12:09.868Z,71.40
2022-09-02T06:13:09.863Z,72.00
2022-09-02T06:14:09.865Z,72.20
2022-09-02T06:15:09.863Z,71.50
2022-09-02T06:16:09.923Z,71.70
2022-09-02T06:17:09.861Z,71.80
2022-09-02T06:18:09.857Z,70.49
2022-09-02T06:19:09.856Z,70.29
2022-09-02T06:20:10.371Z,70.19
2022-09-02T06:21:09.855Z,70.29
2022-09-02T06:22:09.854Z,70.79
2022-09-02T06:23:09.852Z,70.69
2022-09-02T06:24:09.851Z,70.69
2022-09-02T06:25:09.849Z,70.56
2022-09-02T06:26:09.853Z,70.15
2022-09-02T06:27:09.848Z,69.85
2022-09-02T06:28:09.852Z,69.95
2022-09-02T06:29:09.846Z,69.65
2022-09-02T06:30:09.845Z,69.65
2022-09-02T06:31:09.950Z,69.85
2022-09-02T06:32:09.850Z,69.25
2022-09-02T06:33:09.841Z,69.65
2022-09-02T06:34:09.840Z,69.65
2022-09-02T06:35:09.861Z,69.55
2022-09-02T06:36:09.844Z,70.15
2022-09-02T06:37:09.840Z,70.02
2022-09-02T06:38:09.835Z,70.02
2022-09-02T06:39:09.840Z,70.02
2022-09-02T06:40:09.873Z,70.15
2022-09-02T06:41:09.832Z,69.92
2022-09-02T06:42:09.829Z,70.02
2022-09-02T06:43:09.831Z,69.82
2022-09-02T06:44:09.836Z,70.83
2022-09-02T06:45:09.825Z,70.42
2022-09-02T06:46:09.854Z,70.53
2022-09-02T06:47:09.824Z,70.62
2022-09-02T06:48:09.823Z,70.22
2022-09-02T06:49:09.822Z,70.32
2022-09-02T06:50:09.820Z,70.93
2022-09-02T06:51:09.825Z,71.13
2022-09-02T06:52:09.819Z,70.90
2022-09-02T06:53:09.820Z,71.20
2022-09-02T06:54:09.819Z,71.10
2022-09-02T06:55:09.819Z,70.50
2022-09-02T06:56:09.816Z,69.99
2022-09-02T06:57:09.817Z,70.19
2022-09-02T06:58:09.815Z,69.99
2022-09-02T06:59:09.814Z,69.59
2022-09-02T07:00:09.812Z,69.59
2022-09-02T07:01:10.067Z,68.58
2022-09-02T07:02:10.026Z,68.78
2022-09-02T07:03:09.812Z,68.88
2022-09-02T07:04:09.809Z,68.98
2022-09-02T07:05:09.809Z,69.29
2022-09-02T07:06:09.807Z,69.38
2022-09-02T07:07:09.812Z,69.05
2022-09-02T07:08:09.808Z,68.44
2022-09-02T07:09:09.803Z,67.24
2022-09-02T07:10:09.803Z,66.36
2022-09-02T07:11:09.805Z,67.03
2022-09-02T07:12:09.801Z,67.74
2022-09-02T07:13:09.804Z,68.24
2022-09-02T07:14:09.800Z,68.95
2022-09-02T07:15:09.804Z,67.64
2022-09-02T07:16:09.857Z,67.24
2022-09-02T07:17:09.869Z,68.85
2022-09-02T07:18:09.795Z,68.65
2022-09-02T07:19:14.073Z,68.95
2022-09-02T07:20:09.799Z,67.61
2022-09-02T07:21:09.793Z,67.81
2022-09-02T07:22:09.793Z,68.62
2022-09-02T07:23:09.791Z,69.32
2022-09-02T07:24:09.790Z,68.51
2022-09-02T07:25:09.798Z,69.89
2022-09-02T07:26:09.789Z,66.97
2022-09-02T07:27:09.792Z,67.68
2022-09-02T07:28:09.789Z,67.07
2022-09-02T07:29:09.788Z,67.44
2022-09-02T07:30:09.788Z,67.65
2022-09-02T07:31:09.836Z,67.55
2022-09-02T07:32:09.785Z,67.01
2022-09-02T07:33:09.785Z,65.91
2022-09-02T07:34:09.783Z,63.90
2022-09-02T07:35:09.784Z,65.00
2022-09-02T07:36:11.107Z,63.56
2022-09-02T07:37:11.031Z,63.46
2022-09-02T07:38:09.780Z,63.17
2022-09-02T07:39:09.783Z,63.46
2022-09-02T07:40:09.832Z,63.46
2022-09-02T07:41:09.781Z,63.67
2022-09-02T07:42:09.778Z,63.73
2022-09-02T07:43:09.781Z,63.43
2022-09-02T07:44:09.780Z,62.43
2022-09-02T07:45:09.776Z,62.93
2022-09-02T07:46:09.800Z,61.52
2022-09-02T07:47:09.777Z,61.43
2022-09-02T07:48:09.777Z,63.03
2022-09-02T07:49:09.775Z,64.14
2022-09-02T07:50:20.169Z,63.53
2022-09-02T07:51:09.777Z,62.93
2022-09-02T07:52:09.773Z,63.06
2022-09-02T07:53:09.772Z,63.46
2022-09-02T07:54:09.772Z,62.06
2022-09-02T07:55:14.536Z,62.36
2022-09-02T07:56:09.775Z,62.56
2022-09-02T07:57:09.777Z,62.66
2022-09-02T07:58:09.776Z,62.96
2022-09-02T07:59:09.775Z,62.73
2022-09-02T08:00:09.770Z,62.83
2022-09-02T08:01:09.968Z,63.43
2022-09-02T08:02:09.833Z,63.33
2022-09-02T08:03:09.806Z,63.20
2022-09-02T08:04:09.772Z,63.90
2022-09-02T08:05:09.768Z,63.20
2022-09-02T08:06:09.765Z,63.37
2022-09-02T08:07:09.770Z,62.77
2022-09-02T08:08:09.766Z,62.77
2022-09-02T08:09:09.767Z,62.94
2022-09-02T08:10:09.766Z,62.44
2022-09-02T08:11:09.768Z,61.74
2022-09-02T08:12:09.767Z,61.51
2022-09-02T08:13:09.784Z,61.81
2022-09-02T08:14:09.766Z,61.61
2022-09-02T08:15:09.769Z,62.51
2022-09-02T08:16:09.839Z,62.92
2022-09-02T08:17:09.768Z,62.78
2022-09-02T08:18:12.515Z,63.28
2022-09-02T08:19:09.773Z,63.08
2022-09-02T08:20:12.423Z,63.08
2022-09-02T08:21:09.767Z,62.28
2022-09-02T08:22:09.776Z,60.18
2022-09-02T08:23:18.527Z,60.18
2022-09-02T08:24:09.935Z,61.28
2022-09-02T08:25:09.775Z,60.95
2022-09-02T08:26:09.783Z,61.35
2022-09-02T08:27:09.773Z,63.15
2022-09-02T08:28:09.780Z,61.65
2022-09-02T08:29:09.781Z,60.65
2022-09-02T08:30:09.774Z,61.08
2022-09-02T08:31:09.780Z,61.28
2022-09-02T08:32:09.861Z,62.28
2022-09-02T08:33:09.778Z,61.28
2022-09-02T08:34:09.775Z,62.75
2022-09-02T08:35:09.775Z,61.48
2022-09-02T08:36:09.782Z,60.88
2022-09-02T08:37:09.790Z,60.88
2022-09-02T08:38:09.779Z,59.88
2022-09-02T08:39:09.780Z,59.65
2022-09-02T08:40:09.819Z,60.35
2022-09-02T08:41:09.783Z,60.45
2022-09-02T08:42:09.786Z,59.25
2022-09-02T08:43:09.785Z,60.25
2022-09-02T08:44:09.780Z,61.35
2022-09-02T08:45:09.779Z,61.35
2022-09-02T08:46:09.869Z,61.25
2022-09-02T08:47:09.784Z,61.85
2022-09-02T08:48:09.783Z,60.15
2022-09-02T08:49:09.789Z,60.55
2022-09-02T08:50:09.783Z,62.65
2022-09-02T08:51:09.785Z,62.25
2022-09-02T08:52:09.786Z,62.75
2022-09-02T08:53:09.788Z,63.12
2022-09-02T08:54:09.784Z,60.32
2022-09-02T08:55:09.788Z,59.22
2022-09-02T08:56:09.785Z,59.52
2022-09-02T08:57:09.786Z,60.99
2022-09-02T08:58:09.793Z,59.69
2022-09-02T08:59:09.788Z,58.69
2022-09-02T09:00:09.789Z,59.32
2022-09-02T09:01:09.897Z,59.69
2022-09-02T09:02:09.829Z,59.09
2022-09-02T09:03:09.791Z,58.29
2022-09-02T09:04:09.863Z,58.00
2022-09-02T09:05:09.794Z,57.37
2022-09-02T09:06:09.793Z,56.49
2022-09-02T09:07:09.798Z,56.70
2022-09-02T09:08:12.494Z,58.69
2022-09-02T09:09:09.788Z,56.70
2022-09-02T09:10:09.793Z,57.59
2022-09-02T09:11:09.793Z,58.39
2022-09-02T09:12:09.791Z,58.39
2022-09-02T09:13:09.796Z,58.89
2022-09-02T09:14:09.790Z,58.47
2022-09-02T09:15:09.795Z,58.39
2022-09-02T09:16:09.827Z,58.67
2022-09-02T09:17:09.791Z,57.97
2022-09-02T09:18:09.796Z,59.27
2022-09-02T09:19:09.795Z,59.17
2022-09-02T09:20:09.793Z,59.36
2022-09-02T09:21:10.995Z,57.17
2022-09-02T09:22:09.793Z,57.97
2022-09-02T09:23:09.800Z,57.34
2022-09-02T09:24:09.796Z,56.34
2022-09-02T09:25:09.798Z,56.14
2022-09-02T09:26:09.794Z,55.34
2022-09-02T09:27:09.798Z,54.14
2022-09-02T09:28:09.798Z,56.61
2022-09-02T09:29:09.795Z,56.91
2022-09-02T09:30:14.910Z,56.81
2022-09-02T09:31:09.808Z,57.01
2022-09-02T09:32:09.798Z,56.34
2022-09-02T09:33:09.801Z,57.64
2022-09-02T09:34:09.808Z,56.71
2022-09-02T09:35:09.806Z,58.51
2022-09-02T09:36:09.804Z,57.11
2022-09-02T09:37:09.802Z,55.71
2022-09-02T09:38:09.799Z,55.32
2022-09-02T09:39:09.801Z,56.18
2022-09-02T09:40:09.859Z,56.61
2022-09-02T09:41:09.800Z,56.68
2022-09-02T09:42:09.803Z,56.09
2022-09-02T09:43:14.973Z,56.68
2022-09-02T09:44:09.804Z,56.68
2022-09-02T09:45:09.804Z,55.99
2022-09-02T09:46:09.857Z,56.18
2022-09-02T09:47:11.787Z,54.36
2022-09-02T09:48:09.809Z,56.98
2022-09-02T09:49:10.689Z,53.17
2022-09-02T09:50:09.806Z,54.27
2022-09-02T09:51:09.810Z,52.25
2022-09-02T09:52:09.809Z,51.87
2022-09-02T09:53:09.807Z,52.76
2022-09-02T09:54:09.816Z,52.64
2022-09-02T09:55:12.230Z,53.06
2022-09-02T09:56:09.810Z,53.34
2022-09-02T09:57:09.812Z,52.84
2022-09-02T09:58:09.812Z,52.04
2022-09-02T09:59:09.813Z,50.35
2022-09-02T10:00:09.810Z,52.14
2022-09-02T10:01:10.110Z,52.14
2022-09-02T10:02:09.858Z,53.74
2022-09-02T10:03:09.815Z,52.84
2022-09-02T10:04:32.383Z,54.14
2022-09-02T10:05:09.813Z,52.64
2022-09-02T10:06:09.814Z,50.95
2022-09-02T10:07:09.817Z,51.25
2022-09-02T10:08:15.039Z,52.25
2022-09-02T10:09:09.816Z,53.24
2022-09-02T10:10:09.818Z,54.06
2022-09-02T10:11:09.818Z,51.17
2022-09-02T10:12:09.815Z,49.35
2022-09-02T10:13:09.857Z,49.55
2022-09-02T10:14:09.816Z,49.25
2022-09-02T10:15:09.819Z,49.93
2022-09-02T10:16:09.848Z,51.92
2022-09-02T10:17:09.821Z,51.52
2022-09-02T10:18:09.819Z,50.52
2022-09-02T10:19:09.821Z,49.73
2022-09-02T10:20:09.821Z,49.60
2022-09-02T10:21:15.249Z,51.40
2022-09-02T10:22:09.824Z,48.31
2022-09-02T10:23:09.827Z,49.01
2022-09-02T10:24:09.824Z,48.50
2022-09-02T10:25:09.830Z,46.81
2022-09-02T10:26:09.826Z,49.01
2022-09-02T10:27:09.827Z,49.10
2022-09-02T10:28:09.825Z,48.31
2022-09-02T10:29:09.831Z,47.11
2022-09-02T10:30:09.825Z,47.51
2022-09-02T10:31:09.887Z,46.91
2022-09-02T10:32:09.828Z,46.22
2022-09-02T10:33:09.831Z,45.62
2022-09-02T10:34:09.837Z,44.92
2022-09-02T10:35:09.831Z,45.72
2022-09-02T10:36:12.823Z,43.33
2022-09-02T10:37:09.833Z,45.82
2022-09-02T10:38:09.833Z,44.92
2022-09-02T10:39:09.833Z,45.82
2022-09-02T10:40:09.921Z,47.11
2022-09-02T10:41:09.840Z,46.31
2022-09-02T10:42:09.844Z,44.02
2022-09-02T10:43:09.837Z,44.53
2022-09-02T10:44:09.842Z,46.01
2022-09-02T10:45:09.840Z,47.61
2022-09-02T10:46:09.838Z,47.51
2022-09-02T10:47:09.840Z,48.50
2022-09-02T10:48:09.843Z,47.61
2022-09-02T10:49:09.843Z,48.80
2022-09-02T10:50:09.842Z,47.61
2022-09-02T10:51:09.842Z,46.01
2022-09-02T10:52:09.883Z,47.91
2022-09-02T10:53:09.880Z,48.61
2022-09-02T10:54:09.861Z,49.01
2022-09-02T10:55:09.848Z,48.31
2022-09-02T10:56:09.848Z,48.71
2022-09-02T10:57:09.853Z,47.02
2022-09-02T10:58:09.853Z,46.22
2022-09-02T10:59:09.851Z,46.04
2022-09-02T11:00:09.853Z,47.24
2022-09-02T11:01:09.947Z,46.73
2022-09-02T11:02:09.854Z,47.91
2022-09-02T11:03:09.889Z,48.83
2022-09-02T11:04:09.856Z,49.83
2022-09-02T11:05:09.852Z,47.63
2022-09-02T11:06:09.859Z,49.03
2022-09-02T11:07:09.855Z,47.53
2022-09-02T11:08:09.859Z,47.14
2022-09-02T11:09:09.859Z,47.03
2022-09-02T11:10:09.859Z,47.24
2022-09-02T11:11:09.859Z,47.14
2022-09-02T11:12:09.864Z,45.04
2022-09-02T11:13:09.859Z,44.65
2022-09-02T11:14:09.863Z,45.84
2022-09-02T11:15:09.864Z,45.84
2022-09-02T11:16:09.942Z,45.94
2022-09-02T11:17:13.362Z,46.04
2022-09-02T11:18:09.930Z,46.26
2022-09-02T11:19:09.864Z,45.66
2022-09-02T11:20:09.870Z,47.16
2022-09-02T11:21:09.867Z,45.96
2022-09-02T11:22:09.867Z,46.36
2022-09-02T11:23:09.870Z,46.86
2022-09-02T11:24:09.874Z,46.86
2022-09-02T11:25:09.870Z,47.26
2022-09-02T11:26:09.870Z,45.96
2022-09-02T11:27:26.013Z,47.26
2022-09-02T11:28:09.875Z,47.33
2022-09-02T11:29:09.874Z,47.45
2022-09-02T11:30:09.878Z,45.96
2022-09-02T11:31:09.875Z,47.26
2022-09-02T11:32:09.878Z,47.45
2022-09-02T11:33:09.876Z,47.75
2022-09-02T11:34:09.881Z,46.36
2022-09-02T11:35:09.879Z,46.16
2022-09-02T11:36:09.889Z,45.96
2022-09-02T11:37:10.838Z,44.96
2022-09-02T11:38:09.887Z,46.06
2022-09-02T11:39:09.881Z,45.36
2022-09-02T11:40:33.114Z,46.46
2022-09-02T11:42:09.959Z,45.26
2022-09-02T11:43:09.885Z,46.36
2022-09-02T11:44:09.890Z,45.96
2022-09-02T11:45:09.915Z,45.66
2022-09-02T11:46:09.927Z,45.66
2022-09-02T11:47:09.888Z,46.36
2022-09-02T11:48:09.895Z,46.96
2022-09-02T11:49:09.889Z,45.66
2022-09-02T11:50:09.898Z,44.96
2022-09-02T11:51:09.948Z,47.14
2022-09-02T11:52:09.984Z,47.26
2022-09-02T11:53:09.893Z,44.87
2022-09-02T11:54:09.898Z,45.74
2022-09-02T11:55:09.898Z,45.04
2022-09-02T11:56:09.936Z,47.33
2022-09-02T11:57:09.922Z,47.24
2022-09-02T11:58:09.906Z,47.44
2022-09-02T11:59:09.901Z,45.84
2022-09-02T12:00:09.905Z,46.24
2022-09-02T12:01:13.971Z,44.84
2022-09-02T12:02:09.912Z,45.92
2022-09-02T12:03:28.536Z,47.02
2022-09-02T12:05:10.351Z,45.92
2022-09-02T12:06:10.101Z,46.42
2022-09-02T12:07:10.668Z,46.81
2022-09-02T12:08:09.909Z,47.61
2022-09-02T12:09:09.918Z,46.51
2022-09-02T12:10:09.910Z,47.11
2022-09-02T12:11:09.909Z,45.72
2022-09-02T12:12:09.916Z,46.42
2022-09-02T12:13:10.077Z,47.02
2022-09-02T12:14:09.912Z,44.82
2022-09-02T12:15:09.912Z,46.12
2022-09-02T12:16:09.964Z,46.01
2022-09-02T12:17:09.913Z,46.22
2022-09-02T12:18:09.918Z,46.31
2022-09-02T12:19:09.916Z,45.82
2022-09-02T12:20:10.051Z,46.91
2022-09-02T12:21:12.760Z,45.92
2022-09-02T12:22:09.926Z,45.52
2022-09-02T12:23:09.920Z,45.74
2022-09-02T12:24:09.958Z,46.91
2022-09-02T12:25:09.922Z,46.31
2022-09-02T12:26:14.064Z,45.92
2022-09-02T12:27:09.929Z,44.84
2022-09-02T12:28:09.927Z,46.04
2022-09-02T12:29:09.927Z,45.94
2022-09-02T12:30:09.933Z,47.24
2022-09-02T12:31:09.987Z,46.84
2022-09-02T12:32:09.937Z,47.33
2022-09-02T12:33:09.932Z,46.14
2022-09-02T12:34:09.934Z,45.54
2022-09-02T12:35:09.936Z,45.44
2022-09-02T12:36:09.939Z,45.84
2022-09-02T12:37:09.937Z,47.14
2022-09-02T12:38:09.945Z,45.14
2022-09-02T12:39:10.074Z,46.06
2022-09-02T12:40:12.978Z,46.04
2022-09-02T12:41:12.855Z,48.03
2022-09-02T12:42:09.942Z,45.44
2022-09-02T12:43:09.948Z,45.14
2022-09-02T12:44:09.945Z,45.94
2022-09-02T12:45:09.943Z,45.94
2022-09-02T12:46:09.971Z,44.45
2022-09-02T12:47:09.947Z,46.14
2022-09-02T12:48:09.950Z,45.44
2022-09-02T12:49:09.950Z,45.74
2022-09-02T12:50:09.951Z,45.04
2022-09-02T12:51:09.950Z,46.44
2022-09-02T12:52:09.952Z,44.84
2022-09-02T12:53:09.952Z,48.03
2022-09-02T12:54:09.955Z,45.34
2022-09-02T12:55:09.955Z,44.45